createdAt,value
2018-07-17T00:01:28.643Z,6.30
2018-07-17T00:03:57.218Z,4.00
2018-07-17T00:06:25.727Z,4.93
2018-07-17T00:08:54.315Z,2.80
2018-07-17T00:11:22.929Z,4.87
2018-07-17T00:13:51.458Z,6.00
2018-07-17T00:16:19.980Z,3.63
2018-07-17T00:18:48.529Z,3.03
2018-07-17T00:21:17.046Z,6.87
2018-07-17T00:23:45.573Z,9.40
2018-07-17T00:26:14.125Z,2.93
2018-07-17T00:28:42.609Z,5.17
2018-07-17T00:31:11.145Z,8.30
2018-07-17T00:33:39.705Z,4.53
2018-07-17T00:36:08.254Z,7.27
2018-07-17T00:38:36.392Z,4.17
2018-07-17T00:41:04.954Z,4.83
2018-07-17T00:43:33.454Z,5.33
2018-07-17T00:46:02.031Z,4.30
2018-07-17T00:48:30.517Z,8.00
2018-07-17T00:50:59.049Z,5.50
2018-07-17T00:53:27.561Z,5.70
2018-07-17T00:55:56.094Z,4.57
2018-07-17T00:58:24.633Z,8.00
2018-07-17T01:00:52.337Z,3.60
2018-07-17T01:03:25.990Z,3.43
2018-07-17T01:05:59.881Z,6.20
2018-07-17T01:08:33.678Z,3.97
2018-07-17T01:11:07.476Z,3.20
2018-07-17T01:13:41.326Z,3.53
2018-07-17T01:16:09.925Z,3.40
2018-07-17T01:18:38.470Z,5.43
2018-07-17T01:21:07.244Z,4.10
2018-07-17T01:23:35.739Z,12.30
2018-07-17T01:26:22.795Z,5.63
2018-07-17T01:28:51.352Z,3.57
2018-07-17T01:31:19.846Z,6.40
2018-07-17T01:33:48.328Z,6.10
2018-07-17T01:36:16.898Z,6.03
2018-07-17T01:38:45.389Z,3.43
2018-07-17T01:41:14.105Z,5.70
2018-07-17T01:43:42.654Z,5.80
2018-07-17T01:46:11.153Z,3.53
2018-07-17T01:48:39.668Z,7.80
2018-07-17T01:51:08.201Z,9.07
2018-07-17T01:53:36.681Z,7.10
2018-07-17T01:56:05.581Z,7.27
2018-07-17T01:58:34.065Z,3.90
2018-07-17T02:01:02.580Z,6.10
2018-07-17T02:03:31.110Z,5.70
2018-07-17T02:05:59.641Z,6.60
2018-07-17T02:08:28.149Z,11.33
2018-07-17T02:10:56.676Z,6.47
2018-07-17T02:13:25.197Z,3.87
2018-07-17T02:15:53.689Z,4.93
2018-07-17T02:18:22.224Z,5.03
2018-07-17T02:20:50.698Z,11.00
2018-07-17T02:23:19.268Z,8.70
2018-07-17T02:25:47.753Z,4.27
2018-07-17T02:28:16.245Z,7.03
2018-07-17T02:30:44.757Z,4.87
2018-07-17T02:33:13.251Z,4.83
2018-07-17T02:35:41.744Z,6.60
2018-07-17T02:38:10.252Z,3.30
2018-07-17T02:40:38.440Z,6.07
2018-07-17T02:43:06.996Z,3.90
2018-07-17T02:45:35.500Z,3.33
2018-07-17T02:48:04.029Z,3.10
2018-07-17T02:50:32.603Z,5.83
2018-07-17T02:53:01.121Z,4.33
2018-07-17T02:55:29.606Z,4.20
2018-07-17T02:57:58.129Z,3.80
2018-07-17T03:00:26.649Z,9.43
2018-07-17T03:02:55.209Z,3.63
2018-07-17T03:05:23.693Z,6.67
2018-07-17T03:07:52.211Z,5.93
2018-07-17T03:10:20.681Z,4.27
2018-07-17T03:12:49.211Z,4.80
2018-07-17T03:15:17.793Z,6.40
2018-07-17T03:17:46.275Z,8.20
2018-07-17T03:20:14.778Z,4.83
2018-07-17T03:22:43.245Z,4.03
2018-07-17T03:25:11.780Z,4.43
2018-07-17T03:27:40.375Z,6.87
2018-07-17T03:30:08.909Z,13.13
2018-07-17T03:32:37.545Z,4.33
2018-07-17T03:35:06.024Z,4.97
2018-07-17T03:37:34.589Z,7.53
2018-07-17T03:40:03.162Z,9.47
2018-07-17T03:42:31.653Z,4.40
2018-07-17T03:45:00.153Z,5.40
2018-07-17T03:47:28.637Z,5.60
2018-07-17T03:49:57.189Z,10.30
2018-07-17T03:52:25.680Z,3.93
2018-07-17T03:54:54.190Z,6.80
2018-07-17T03:57:22.675Z,4.67
2018-07-17T03:59:51.182Z,6.80
2018-07-17T04:02:19.707Z,3.80
2018-07-17T04:04:48.208Z,5.23
2018-07-17T04:07:16.699Z,4.50
2018-07-17T04:09:45.257Z,8.43
2018-07-17T04:12:13.717Z,3.60
2018-07-17T04:14:42.237Z,5.80
2018-07-17T04:17:10.790Z,5.53
2018-07-17T04:19:39.261Z,5.33
2018-07-17T04:22:07.778Z,6.47
2018-07-17T04:24:36.273Z,6.23
2018-07-17T04:27:04.862Z,4.87
2018-07-17T04:29:33.376Z,4.57
2018-07-17T04:32:01.937Z,3.43
2018-07-17T04:34:30.410Z,5.47
2018-07-17T04:36:58.914Z,6.53
2018-07-17T04:39:27.408Z,6.00
2018-07-17T04:41:56.017Z,6.37
2018-07-17T04:44:24.645Z,12.83
2018-07-17T04:46:53.209Z,4.63
2018-07-17T04:49:21.779Z,5.80
2018-07-17T04:51:50.345Z,4.47
2018-07-17T04:54:18.869Z,5.90
2018-07-17T04:56:47.367Z,5.53
2018-07-17T04:59:15.870Z,6.97
2018-07-17T05:01:44.493Z,5.30
2018-07-17T05:04:12.896Z,4.90
2018-07-17T05:06:41.386Z,4.47
2018-07-17T05:09:10.618Z,9.50
2018-07-17T05:11:39.150Z,7.13
2018-07-17T05:14:07.849Z,8.50
2018-07-17T05:16:36.525Z,6.67
2018-07-17T05:19:05.187Z,4.63
2018-07-17T05:21:33.679Z,6.80
2018-07-17T05:24:02.202Z,8.90
2018-07-17T05:26:30.746Z,9.67
2018-07-17T05:28:59.274Z,5.50
2018-07-17T05:31:27.797Z,7.77
2018-07-17T05:33:56.292Z,3.70
2018-07-17T05:36:24.843Z,6.03
2018-07-17T05:38:53.409Z,4.17
2018-07-17T05:41:21.870Z,4.80
2018-07-17T05:43:50.401Z,6.90
2018-07-17T05:46:18.918Z,5.33
2018-07-17T05:48:47.488Z,5.93
2018-07-17T05:51:16.109Z,6.43
2018-07-17T05:53:45.126Z,5.30
2018-07-17T05:56:13.794Z,5.57
2018-07-17T05:58:42.311Z,3.80
2018-07-17T06:01:10.864Z,4.00
2018-07-17T06:03:39.391Z,7.93
2018-07-17T06:06:07.596Z,8.10
2018-07-17T06:08:36.162Z,5.10
2018-07-17T06:11:04.785Z,4.30
2018-07-17T06:13:33.391Z,12.33
2018-07-17T06:16:01.902Z,5.50
2018-07-17T06:18:30.397Z,6.47
2018-07-17T06:20:58.982Z,4.87
2018-07-17T06:23:27.476Z,4.90
2018-07-17T06:25:56.037Z,5.63
2018-07-17T06:28:26.613Z,7.03
2018-07-17T06:30:54.895Z,7.03
2018-07-17T06:33:23.453Z,6.90
2018-07-17T06:35:52.025Z,9.53
2018-07-17T06:38:20.569Z,3.60
2018-07-17T06:40:49.120Z,8.20
2018-07-17T06:43:17.619Z,7.80
2018-07-17T06:45:46.212Z,10.70
2018-07-17T06:48:14.741Z,7.03
2018-07-17T06:50:43.283Z,11.13
2018-07-17T06:53:11.786Z,8.07
2018-07-17T06:55:40.277Z,12.63
2018-07-17T06:58:08.836Z,6.80
2018-07-17T07:00:37.349Z,6.90
2018-07-17T07:03:05.961Z,7.00
2018-07-17T07:05:34.528Z,6.50
2018-07-17T07:08:02.749Z,6.87
2018-07-17T07:10:31.238Z,6.33
2018-07-17T07:12:59.768Z,6.20
2018-07-17T07:15:28.285Z,5.27
2018-07-17T07:17:56.852Z,8.90
2018-07-17T07:20:25.329Z,5.30
2018-07-17T07:22:53.897Z,7.27
2018-07-17T07:25:22.409Z,11.90
2018-07-17T07:27:50.962Z,10.67
2018-07-17T07:30:19.480Z,10.17
2018-07-17T07:32:49.473Z,9.43
2018-07-17T07:35:18.123Z,10.03
2018-07-17T07:37:46.651Z,11.40
2018-07-17T07:40:15.308Z,7.70
2018-07-17T07:42:43.946Z,10.50
2018-07-17T07:45:12.368Z,15.43
2018-07-17T07:47:40.904Z,9.07
2018-07-17T07:50:09.429Z,10.60
2018-07-17T07:52:37.910Z,16.77
2018-07-17T07:55:06.766Z,16.00
2018-07-17T07:57:35.266Z,12.43
2018-07-17T08:00:03.915Z,17.47
2018-07-17T08:02:32.433Z,15.13
2018-07-17T08:05:00.978Z,13.87
2018-07-17T08:07:29.437Z,16.63
2018-07-17T08:09:57.958Z,13.57
2018-07-17T08:12:26.424Z,14.47
2018-07-17T08:14:55.005Z,16.33
2018-07-17T08:17:23.541Z,22.07
2018-07-17T08:19:52.037Z,12.67
2018-07-17T08:22:20.525Z,8.67
2018-07-17T08:24:49.026Z,11.20
2018-07-17T08:27:17.548Z,9.50
2018-07-17T08:29:46.089Z,15.60
2018-07-17T08:32:14.608Z,19.30
2018-07-17T08:34:43.167Z,18.50
2018-07-17T08:37:11.651Z,12.10
2018-07-17T08:39:40.148Z,14.00
2018-07-17T08:42:08.713Z,12.07
2018-07-17T08:44:37.173Z,21.77
2018-07-17T08:47:05.753Z,20.23
2018-07-17T08:49:34.277Z,15.37
2018-07-17T08:52:02.476Z,15.03
2018-07-17T08:54:31.004Z,16.30
2018-07-17T08:56:59.573Z,16.30
2018-07-17T08:59:28.173Z,17.83
2018-07-17T09:01:56.740Z,14.20
2018-07-17T09:04:25.248Z,13.60
2018-07-17T09:06:53.753Z,14.20
2018-07-17T09:09:22.224Z,20.07
2018-07-17T09:11:50.754Z,19.67
2018-07-17T09:14:19.266Z,7.90
2018-07-17T09:16:47.745Z,11.60
2018-07-17T09:19:16.225Z,14.10
2018-07-17T09:21:44.737Z,11.93
2018-07-17T09:24:13.211Z,14.87
2018-07-17T09:26:41.729Z,12.40
2018-07-17T09:29:10.506Z,12.00
2018-07-17T09:31:39.027Z,7.30
2018-07-17T09:34:07.506Z,10.40
2018-07-17T09:36:36.124Z,7.37
2018-07-17T09:39:06.081Z,12.03
2018-07-17T09:41:34.609Z,11.83
2018-07-17T09:44:03.205Z,17.07
2018-07-17T09:46:31.664Z,12.67
2018-07-17T09:49:00.172Z,11.30
2018-07-17T09:51:28.714Z,13.97
2018-07-17T09:53:57.225Z,12.63
2018-07-17T09:56:25.865Z,16.03
2018-07-17T09:58:54.376Z,11.40
2018-07-17T10:01:28.320Z,9.93
2018-07-17T10:03:56.845Z,11.17
2018-07-17T10:06:25.420Z,15.60
2018-07-17T10:08:53.953Z,10.67
2018-07-17T10:11:22.510Z,10.83
2018-07-17T10:13:51.068Z,9.70
2018-07-17T10:16:20.025Z,8.40
2018-07-17T10:18:48.526Z,6.07
2018-07-17T10:21:17.136Z,11.80
2018-07-17T10:23:45.717Z,13.00
2018-07-17T10:26:14.295Z,11.23
2018-07-17T10:28:42.764Z,12.90
2018-07-17T10:31:11.293Z,8.17
2018-07-17T10:33:39.818Z,15.50
2018-07-17T10:36:08.396Z,8.50
2018-07-17T10:38:37.024Z,16.10
2018-07-17T10:41:05.554Z,9.53
2018-07-17T10:43:34.185Z,11.40
2018-07-17T10:46:02.738Z,7.00
2018-07-17T10:48:31.221Z,8.90
2018-07-17T10:50:59.746Z,10.60
2018-07-17T10:53:28.665Z,7.70
2018-07-17T10:55:57.261Z,12.27
2018-07-17T10:58:25.757Z,12.80
2018-07-17T11:00:54.371Z,6.10
2018-07-17T11:03:22.862Z,9.20
2018-07-17T11:05:51.394Z,11.40
2018-07-17T11:08:19.992Z,12.73
2018-07-17T11:10:48.494Z,5.73
2018-07-17T11:13:16.985Z,9.13
2018-07-17T11:15:45.202Z,7.00
2018-07-17T11:18:13.770Z,4.73
2018-07-17T11:20:42.307Z,5.83
2018-07-17T11:23:10.856Z,11.63
2018-07-17T11:25:39.415Z,9.90
2018-07-17T11:28:07.981Z,6.80
2018-07-17T11:30:36.529Z,8.07
2018-07-17T11:33:05.547Z,5.90
2018-07-17T11:35:34.056Z,5.70
2018-07-17T11:38:02.561Z,7.30
2018-07-17T11:40:31.091Z,3.80
2018-07-17T11:42:59.626Z,5.57
2018-07-17T11:45:28.125Z,5.57
2018-07-17T11:47:56.672Z,3.93
2018-07-17T11:50:25.164Z,5.63
2018-07-17T11:52:53.717Z,2.80
2018-07-17T11:55:22.242Z,2.40
2018-07-17T11:57:50.876Z,2.80
2018-07-17T12:00:19.429Z,3.27
2018-07-17T12:02:48.083Z,2.63
2018-07-17T12:05:16.656Z,3.97
2018-07-17T12:07:45.205Z,4.07
2018-07-17T12:10:13.686Z,6.70
2018-07-17T12:12:42.277Z,5.47
2018-07-17T12:15:10.888Z,5.67
2018-07-17T12:17:39.104Z,5.40
2018-07-17T12:20:07.744Z,2.57
2018-07-17T12:22:35.892Z,10.53
2018-07-17T12:25:04.428Z,3.70
2018-07-17T12:27:32.925Z,4.30
2018-07-17T12:30:01.462Z,3.80
2018-07-17T12:32:30.101Z,4.23
2018-07-17T12:34:58.735Z,4.47
2018-07-17T12:37:27.222Z,6.03
2018-07-17T12:39:55.789Z,9.13
2018-07-17T12:42:24.350Z,7.07
2018-07-17T12:44:52.903Z,5.33
2018-07-17T12:47:21.498Z,4.47
2018-07-17T12:49:50.091Z,3.67
2018-07-17T12:52:18.587Z,4.47
2018-07-17T12:54:47.093Z,6.80
2018-07-17T12:57:15.635Z,3.53
2018-07-17T12:59:44.184Z,4.80
2018-07-17T13:02:12.712Z,4.83
2018-07-17T13:04:41.205Z,9.97
2018-07-17T13:07:09.738Z,2.77
2018-07-17T13:09:38.289Z,2.67
2018-07-17T13:12:07.216Z,3.80
2018-07-17T13:14:35.768Z,5.90
2018-07-17T13:17:04.405Z,7.30
2018-07-17T13:19:32.949Z,3.87
2018-07-17T13:22:01.462Z,2.93
2018-07-17T13:24:29.997Z,4.20
2018-07-17T13:26:58.526Z,2.77
2018-07-17T13:29:27.050Z,4.17
2018-07-17T13:31:55.557Z,11.03
2018-07-17T13:34:23.716Z,9.83
2018-07-17T13:36:52.432Z,6.83
2018-07-17T13:39:20.984Z,8.17
2018-07-17T13:41:49.521Z,2.93
2018-07-17T13:44:18.013Z,7.80
2018-07-17T13:46:46.605Z,3.90
2018-07-17T13:49:15.129Z,6.87
2018-07-17T13:51:43.702Z,8.50
2018-07-17T13:54:12.215Z,4.47
2018-07-17T13:56:40.761Z,6.20
2018-07-17T13:59:09.253Z,3.20
2018-07-17T14:01:37.796Z,5.13
2018-07-17T14:04:06.317Z,3.57
2018-07-17T14:06:34.860Z,12.83
2018-07-17T14:09:06.717Z,7.17
2018-07-17T14:11:35.345Z,9.60
2018-07-17T14:14:04.168Z,5.47
2018-07-17T14:16:32.678Z,4.20
2018-07-17T14:19:01.219Z,3.40
2018-07-17T14:21:29.729Z,6.93
2018-07-17T14:23:58.273Z,3.10
2018-07-17T14:26:26.777Z,4.03
2018-07-17T14:28:55.310Z,4.03
2018-07-17T14:31:23.813Z,5.13
2018-07-17T14:33:52.360Z,6.50
2018-07-17T14:36:20.949Z,4.43
2018-07-17T14:38:49.557Z,4.13
2018-07-17T14:41:18.085Z,3.60
2018-07-17T14:43:46.650Z,7.23
2018-07-17T14:46:15.206Z,4.07
2018-07-17T14:48:43.891Z,3.90
2018-07-17T14:51:13.918Z,3.33
2018-07-17T14:53:42.469Z,4.93
2018-07-17T14:56:11.037Z,3.53
2018-07-17T14:58:39.572Z,3.50
2018-07-17T15:01:08.556Z,2.63
2018-07-17T15:03:37.165Z,5.67
2018-07-17T15:06:05.708Z,4.33
2018-07-17T15:08:34.328Z,2.90
2018-07-17T15:11:02.925Z,4.17
2018-07-17T15:13:31.531Z,3.50
2018-07-17T15:16:00.165Z,5.07
2018-07-17T15:18:28.640Z,2.50
2018-07-17T15:20:57.164Z,6.63
2018-07-17T15:23:25.638Z,7.73
2018-07-17T15:25:54.197Z,6.37
2018-07-17T15:28:22.753Z,6.30
2018-07-17T15:30:51.382Z,4.13
2018-07-17T15:33:19.958Z,7.73
2018-07-17T15:35:48.540Z,4.20
2018-07-17T15:38:17.242Z,5.40
2018-07-17T15:40:45.838Z,6.23
2018-07-17T15:43:14.389Z,3.80
2018-07-17T15:45:43.006Z,7.93
2018-07-17T15:48:11.556Z,6.77
2018-07-17T15:50:40.117Z,5.53
2018-07-17T15:53:08.743Z,6.30
2018-07-17T15:55:37.240Z,5.33
2018-07-17T15:58:05.897Z,3.60
2018-07-17T16:00:34.497Z,6.13
2018-07-17T16:03:04.393Z,8.53
2018-07-17T16:05:33.506Z,2.90
2018-07-17T16:08:02.467Z,2.70
2018-07-17T16:10:31.468Z,14.67
2018-07-17T16:13:00.356Z,8.87
2018-07-17T16:15:28.904Z,6.30
2018-07-17T16:17:57.439Z,3.50
2018-07-17T16:20:25.988Z,3.00
2018-07-17T16:22:54.568Z,5.13
2018-07-17T16:25:23.147Z,13.97
2018-07-17T16:27:51.749Z,7.63
2018-07-17T16:30:20.306Z,4.10
2018-07-17T16:32:48.854Z,7.50
2018-07-17T16:35:17.410Z,6.83
2018-07-17T16:37:45.995Z,4.67
2018-07-17T16:40:14.600Z,4.40
2018-07-17T16:42:43.272Z,5.27
2018-07-17T16:45:11.836Z,3.30
2018-07-17T16:47:40.450Z,24.37
2018-07-17T16:50:09.001Z,4.10
2018-07-17T16:52:38.044Z,9.70
2018-07-17T16:55:06.581Z,10.80
2018-07-17T16:57:35.107Z,13.73
2018-07-17T17:00:03.728Z,5.30
2018-07-17T17:02:32.256Z,13.47
2018-07-17T17:05:00.892Z,13.07
2018-07-17T17:07:29.453Z,7.60
2018-07-17T17:09:57.966Z,7.80
2018-07-17T17:12:26.472Z,13.97
2018-07-17T17:14:55.120Z,16.43
2018-07-17T17:17:23.735Z,11.77
2018-07-17T17:19:52.320Z,11.40
2018-07-17T17:22:20.813Z,15.03
2018-07-17T17:24:49.335Z,6.87
2018-07-17T17:27:17.886Z,10.97
2018-07-17T17:29:46.522Z,7.20
2018-07-17T17:32:15.096Z,8.77
2018-07-17T17:34:43.670Z,9.07
2018-07-17T17:37:12.265Z,10.10
2018-07-17T17:39:40.887Z,10.43
2018-07-17T17:42:09.568Z,15.50
2018-07-17T17:44:38.098Z,12.00
2018-07-17T17:47:06.668Z,11.43
2018-07-17T17:49:35.308Z,7.83
2018-07-17T17:52:03.851Z,9.03
2018-07-17T17:54:32.453Z,14.33
2018-07-17T17:57:01.018Z,22.90
2018-07-17T17:59:29.739Z,11.93
2018-07-17T18:01:58.361Z,6.73
2018-07-17T18:04:26.960Z,12.33
2018-07-17T18:06:55.541Z,9.37
2018-07-17T18:09:25.081Z,8.80
2018-07-17T18:11:53.702Z,9.80
2018-07-17T18:14:22.214Z,10.60
2018-07-17T18:16:51.122Z,8.40
2018-07-17T18:19:19.687Z,7.47
2018-07-17T18:21:48.326Z,7.50
2018-07-17T18:24:16.846Z,9.87
2018-07-17T18:26:45.717Z,6.93
2018-07-17T18:29:14.284Z,13.43
2018-07-17T18:31:43.045Z,5.80
2018-07-17T18:34:11.655Z,9.00
2018-07-17T18:36:40.144Z,9.37
2018-07-17T18:39:08.797Z,6.67
2018-07-17T18:41:37.462Z,6.53
2018-07-17T18:44:05.976Z,6.80
2018-07-17T18:46:34.485Z,12.57
2018-07-17T18:49:02.992Z,13.30
2018-07-17T18:51:31.551Z,12.20
2018-07-17T18:53:59.692Z,10.07
2018-07-17T18:56:28.358Z,17.63
2018-07-17T18:58:56.904Z,18.70
2018-07-17T19:01:25.456Z,16.13
2018-07-17T19:03:54.051Z,13.53
2018-07-17T19:06:22.622Z,7.67
2018-07-17T19:08:51.166Z,13.60
2018-07-17T19:11:19.767Z,12.83
2018-07-17T19:13:48.399Z,9.00
2018-07-17T19:16:16.984Z,10.10
2018-07-17T19:18:45.575Z,9.87
2018-07-17T19:21:14.097Z,11.67
2018-07-17T19:23:42.717Z,9.67
2018-07-17T19:26:11.253Z,10.87
2018-07-17T19:28:39.799Z,10.60
2018-07-17T19:31:08.323Z,10.17
2018-07-17T19:33:36.925Z,11.90
2018-07-17T19:36:05.770Z,12.03
2018-07-17T19:38:34.292Z,9.03
2018-07-17T19:41:03.002Z,16.10
2018-07-17T19:43:31.564Z,10.30
2018-07-17T19:46:00.073Z,9.20
2018-07-17T19:48:28.707Z,16.23
2018-07-17T19:50:57.290Z,8.53
2018-07-17T19:53:25.932Z,13.00
2018-07-17T19:55:54.547Z,11.17
2018-07-17T19:58:23.084Z,13.07
2018-07-17T20:00:51.677Z,9.13
2018-07-17T20:03:20.225Z,10.77
2018-07-17T20:05:49.040Z,15.13
2018-07-17T20:08:18.496Z,14.03
2018-07-17T20:10:47.010Z,8.83
2018-07-17T20:13:15.566Z,11.10
2018-07-17T20:15:44.186Z,14.57
2018-07-17T20:18:12.818Z,13.00
2018-07-17T20:20:41.345Z,12.73
2018-07-17T20:23:09.966Z,12.77
2018-07-17T20:25:38.484Z,13.43
2018-07-17T20:28:07.013Z,17.20
2018-07-17T20:30:35.541Z,17.27
2018-07-17T20:33:04.102Z,14.33
2018-07-17T20:35:32.712Z,16.30
2018-07-17T20:38:01.578Z,14.93
2018-07-17T20:40:30.096Z,16.20
2018-07-17T20:42:58.674Z,17.80
2018-07-17T20:45:27.225Z,21.30
2018-07-17T20:47:55.749Z,25.37
2018-07-17T20:50:24.298Z,21.07
2018-07-17T20:52:53.680Z,16.97
2018-07-17T20:55:22.363Z,18.80
2018-07-17T20:57:50.918Z,23.43
2018-07-17T21:00:19.685Z,19.83
2018-07-17T21:02:49.119Z,21.70
2018-07-17T21:05:17.688Z,24.00
2018-07-17T21:07:46.448Z,21.10
2018-07-17T21:10:15.214Z,22.97
2018-07-17T21:12:43.560Z,19.17
2018-07-17T21:15:12.205Z,27.47
2018-07-17T21:17:40.856Z,33.00
2018-07-17T21:20:09.041Z,28.73
2018-07-17T21:22:38.383Z,28.30
2018-07-17T21:25:07.035Z,25.27
2018-07-17T21:27:35.584Z,28.93
2018-07-17T21:30:04.463Z,28.37
2018-07-17T21:32:33.017Z,30.00
2018-07-17T21:35:01.973Z,34.50
2018-07-17T21:37:30.591Z,41.07
2018-07-17T21:39:59.177Z,29.30
2018-07-17T21:42:27.750Z,33.97
2018-07-17T21:44:57.204Z,29.63
2018-07-17T21:47:25.730Z,28.43
2018-07-17T21:49:54.316Z,36.47
2018-07-17T21:52:22.824Z,39.40
2018-07-17T21:54:51.394Z,42.73
2018-07-17T21:57:19.924Z,44.90
2018-07-17T21:59:48.452Z,39.03
2018-07-17T22:02:16.989Z,40.20
2018-07-17T22:04:45.553Z,47.90
2018-07-17T22:07:14.067Z,35.63
2018-07-17T22:09:42.605Z,39.43
2018-07-17T22:12:11.252Z,43.63
2018-07-17T22:14:39.950Z,47.83
2018-07-17T22:17:08.492Z,47.60
2018-07-17T22:19:37.017Z,44.73
2018-07-17T22:22:06.956Z,41.93
2018-07-17T22:24:35.501Z,39.93
2018-07-17T22:27:05.246Z,40.30
2018-07-17T22:29:33.817Z,42.40
2018-07-17T22:32:02.369Z,44.03
2018-07-17T22:34:31.045Z,41.83
2018-07-17T22:36:59.578Z,45.60
2018-07-17T22:39:28.481Z,35.60
2018-07-17T22:41:57.606Z,49.17
2018-07-17T22:44:26.115Z,44.87
2018-07-17T22:46:54.672Z,35.87
2018-07-17T22:49:23.512Z,33.23
2018-07-17T22:51:53.977Z,30.33
2018-07-17T22:54:22.529Z,27.67
2018-07-17T22:56:51.057Z,25.83
2018-07-17T22:59:19.944Z,28.57
2018-07-17T23:01:49.044Z,26.20
2018-07-17T23:04:17.838Z,20.20
2018-07-17T23:06:46.369Z,17.43
2018-07-17T23:09:14.891Z,22.47
2018-07-17T23:11:43.437Z,17.03
2018-07-17T23:14:11.973Z,14.63
2018-07-17T23:16:40.554Z,9.27
2018-07-17T23:19:09.045Z,13.33
2018-07-17T23:21:37.616Z,14.23
2018-07-17T23:24:06.165Z,12.30
2018-07-17T23:26:34.658Z,11.53
2018-07-17T23:29:03.239Z,14.40
2018-07-17T23:31:31.748Z,16.23
2018-07-17T23:34:00.357Z,16.97
2018-07-17T23:36:28.838Z,14.33
2018-07-17T23:38:57.369Z,16.57
2018-07-17T23:41:25.881Z,17.43
2018-07-17T23:43:54.508Z,24.93
2018-07-17T23:46:23.052Z,16.80
2018-07-17T23:48:51.794Z,14.40
2018-07-17T23:51:20.345Z,16.00
2018-07-17T23:53:48.891Z,21.20
2018-07-17T23:56:17.409Z,10.37
2018-07-17T23:58:45.905Z,11.00
